sensor_id;sensor_type;location;lat;lon;timestamp;P1;durP1;ratioP1;P2;durP2;ratioP2
9689;SDS011;4884;42.614;23.340;2023-06-14T00:00:36;20.30;;;15.00;;
9689;SDS011;4884;42.614;23.340;2023-06-14T00:03:04;16.07;;;13.97;;
9689;SDS011;4884;42.614;23.340;2023-06-14T00:05:29;15.67;;;13.00;;
9689;SDS011;4884;42.614;23.340;2023-06-14T00:07:57;15.17;;;12.67;;
9689;SDS011;4884;42.614;23.340;2023-06-14T00:10:25;15.27;;;13.67;;
9689;SDS011;4884;42.614;23.340;2023-06-14T00:12:55;19.00;;;12.80;;
9689;SDS011;4884;42.614;23.340;2023-06-14T00:15:21;15.27;;;11.83;;
9689;SDS011;4884;42.614;23.340;2023-06-14T00:17:46;13.43;;;11.83;;
9689;SDS011;4884;42.614;23.340;2023-06-14T00:20:12;12.67;;;11.20;;
9689;SDS011;4884;42.614;23.340;2023-06-14T00:22:38;12.00;;;10.40;;
9689;SDS011;4884;42.614;23.340;2023-06-14T00:25:03;11.70;;;10.47;;
9689;SDS011;4884;42.614;23.340;2023-06-14T00:27:30;10.93;;;9.83;;
9689;SDS011;4884;42.614;23.340;2023-06-14T00:29:55;11.10;;;9.93;;
9689;SDS011;4884;42.614;23.340;2023-06-14T00:32:23;11.37;;;10.17;;
9689;SDS011;4884;42.614;23.340;2023-06-14T00:34:50;11.13;;;10.13;;
9689;SDS011;4884;42.614;23.340;2023-06-14T00:37:16;11.13;;;9.83;;
9689;SDS011;4884;42.614;23.340;2023-06-14T00:39:41;8.87;;;8.07;;
9689;SDS011;4884;42.614;23.340;2023-06-14T00:42:07;11.83;;;9.20;;
9689;SDS011;4884;42.614;23.340;2023-06-14T00:44:32;9.53;;;8.73;;
9689;SDS011;4884;42.614;23.340;2023-06-14T00:46:57;9.50;;;8.67;;
9689;SDS011;4884;42.614;23.340;2023-06-14T00:49:23;12.07;;;8.70;;
9689;SDS011;4884;42.614;23.340;2023-06-14T00:51:48;10.70;;;9.70;;
9689;SDS011;4884;42.614;23.340;2023-06-14T00:54:14;10.57;;;9.40;;
9689;SDS011;4884;42.614;23.340;2023-06-14T00:56:39;11.10;;;10.00;;
9689;SDS011;4884;42.614;23.340;2023-06-14T00:59:05;10.97;;;9.57;;
9689;SDS011;4884;42.614;23.340;2023-06-14T01:01:31;12.30;;;10.23;;
9689;SDS011;4884;42.614;23.340;2023-06-14T01:03:59;11.20;;;10.00;;
9689;SDS011;4884;42.614;23.340;2023-06-14T01:11:54;10.80;;;9.67;;
9689;SDS011;4884;42.614;23.340;2023-06-14T01:14:23;12.17;;;9.67;;
9689;SDS011;4884;42.614;23.340;2023-06-14T01:16:50;12.23;;;9.73;;
9689;SDS011;4884;42.614;23.340;2023-06-14T01:19:18;13.53;;;9.77;;
9689;SDS011;4884;42.614;23.340;2023-06-14T01:21:44;10.97;;;9.87;;
9689;SDS011;4884;42.614;23.340;2023-06-14T01:24:09;14.37;;;10.00;;
9689;SDS011;4884;42.614;23.340;2023-06-14T01:26:36;11.40;;;9.43;;
9689;SDS011;4884;42.614;23.340;2023-06-14T01:29:02;11.90;;;9.07;;
9689;SDS011;4884;42.614;23.340;2023-06-14T01:31:28;12.67;;;10.03;;
9689;SDS011;4884;42.614;23.340;2023-06-14T01:33:54;9.97;;;9.00;;
9689;SDS011;4884;42.614;23.340;2023-06-14T01:36:20;10.70;;;9.17;;
9689;SDS011;4884;42.614;23.340;2023-06-14T01:38:46;11.30;;;9.07;;
9689;SDS011;4884;42.614;23.340;2023-06-14T01:41:14;11.20;;;10.00;;
9689;SDS011;4884;42.614;23.340;2023-06-14T01:43:40;10.60;;;9.40;;
9689;SDS011;4884;42.614;23.340;2023-06-14T01:46:06;13.13;;;9.23;;
9689;SDS011;4884;42.614;23.340;2023-06-14T01:48:33;10.70;;;9.70;;
9689;SDS011;4884;42.614;23.340;2023-06-14T01:50:59;13.93;;;10.30;;
9689;SDS011;4884;42.614;23.340;2023-06-14T01:53:24;11.27;;;10.13;;
9689;SDS011;4884;42.614;23.340;2023-06-14T01:55:50;10.37;;;9.37;;
9689;SDS011;4884;42.614;23.340;2023-06-14T01:58:15;11.87;;;10.70;;
9689;SDS011;4884;42.614;23.340;2023-06-14T02:00:44;12.53;;;11.33;;
9689;SDS011;4884;42.614;23.340;2023-06-14T02:03:10;11.63;;;9.70;;
9689;SDS011;4884;42.614;23.340;2023-06-14T02:05:36;13.03;;;9.33;;
9689;SDS011;4884;42.614;23.340;2023-06-14T02:08:04;11.30;;;9.67;;
9689;SDS011;4884;42.614;23.340;2023-06-14T02:10:29;12.00;;;9.83;;
9689;SDS011;4884;42.614;23.340;2023-06-14T02:12:54;10.80;;;9.47;;
9689;SDS011;4884;42.614;23.340;2023-06-14T02:15:20;10.73;;;9.70;;
9689;SDS011;4884;42.614;23.340;2023-06-14T02:17:47;11.67;;;9.93;;
9689;SDS011;4884;42.614;23.340;2023-06-14T02:20:12;10.50;;;9.50;;
9689;SDS011;4884;42.614;23.340;2023-06-14T02:22:38;11.37;;;10.27;;
9689;SDS011;4884;42.614;23.340;2023-06-14T02:25:04;10.57;;;9.33;;
9689;SDS011;4884;42.614;23.340;2023-06-14T02:27:29;12.93;;;10.97;;
9689;SDS011;4884;42.614;23.340;2023-06-14T02:29:54;12.20;;;9.53;;
9689;SDS011;4884;42.614;23.340;2023-06-14T02:32:20;10.87;;;9.87;;
9689;SDS011;4884;42.614;23.340;2023-06-14T02:34:45;11.30;;;10.17;;
9689;SDS011;4884;42.614;23.340;2023-06-14T02:37:14;10.43;;;8.90;;
9689;SDS011;4884;42.614;23.340;2023-06-14T02:39:40;10.73;;;9.07;;
9689;SDS011;4884;42.614;23.340;2023-06-14T02:42:05;10.67;;;9.67;;
9689;SDS011;4884;42.614;23.340;2023-06-14T02:44:31;10.27;;;9.37;;
9689;SDS011;4884;42.614;23.340;2023-06-14T02:46:57;11.43;;;10.30;;
9689;SDS011;4884;42.614;23.340;2023-06-14T02:49:23;11.37;;;10.23;;
9689;SDS011;4884;42.614;23.340;2023-06-14T02:51:49;10.90;;;9.77;;
9689;SDS011;4884;42.614;23.340;2023-06-14T02:54:15;9.93;;;9.03;;
9689;SDS011;4884;42.614;23.340;2023-06-14T02:56:40;10.43;;;9.53;;
9689;SDS011;4884;42.614;23.340;2023-06-14T02:59:06;11.80;;;10.30;;
9689;SDS011;4884;42.614;23.340;2023-06-14T03:01:32;11.00;;;9.90;;
9689;SDS011;4884;42.614;23.340;2023-06-14T03:04:05;14.33;;;12.40;;
9689;SDS011;4884;42.614;23.340;2023-06-14T03:06:32;15.13;;;11.90;;
9689;SDS011;4884;42.614;23.340;2023-06-14T03:08:58;28.63;;;25.63;;
9689;SDS011;4884;42.614;23.340;2023-06-14T03:11:25;35.57;;;31.83;;
9689;SDS011;4884;42.614;23.340;2023-06-14T03:13:51;14.77;;;13.27;;
9689;SDS011;4884;42.614;23.340;2023-06-14T03:16:17;12.90;;;11.57;;
9689;SDS011;4884;42.614;23.340;2023-06-14T03:18:47;11.53;;;10.43;;
9689;SDS011;4884;42.614;23.340;2023-06-14T03:21:16;20.53;;;17.53;;
9689;SDS011;4884;42.614;23.340;2023-06-14T03:23:42;15.77;;;14.13;;
9689;SDS011;4884;42.614;23.340;2023-06-14T03:26:08;12.97;;;11.60;;
9689;SDS011;4884;42.614;23.340;2023-06-14T03:28:33;13.97;;;10.93;;
9689;SDS011;4884;42.614;23.340;2023-06-14T03:30:59;30.37;;;27.13;;
9689;SDS011;4884;42.614;23.340;2023-06-14T03:33:25;22.20;;;19.20;;
9689;SDS011;4884;42.614;23.340;2023-06-14T03:35:50;14.83;;;13.47;;
9689;SDS011;4884;42.614;23.340;2023-06-14T03:38:16;17.70;;;14.43;;
9689;SDS011;4884;42.614;23.340;2023-06-14T03:40:42;12.87;;;11.57;;
9689;SDS011;4884;42.614;23.340;2023-06-14T03:43:07;16.57;;;12.20;;
9689;SDS011;4884;42.614;23.340;2023-06-14T03:45:33;12.30;;;11.10;;
9689;SDS011;4884;42.614;23.340;2023-06-14T03:47:58;15.33;;;13.70;;
9689;SDS011;4884;42.614;23.340;2023-06-14T03:50:25;19.30;;;16.57;;
9689;SDS011;4884;42.614;23.340;2023-06-14T03:52:51;18.17;;;16.13;;
9689;SDS011;4884;42.614;23.340;2023-06-14T03:55:16;17.97;;;14.27;;
9689;SDS011;4884;42.614;23.340;2023-06-14T03:57:41;14.13;;;11.70;;
9689;SDS011;4884;42.614;23.340;2023-06-14T04:00:08;16.00;;;11.30;;
9689;SDS011;4884;42.614;23.340;2023-06-14T04:02:34;13.03;;;11.80;;
9689;SDS011;4884;42.614;23.340;2023-06-14T04:05:01;12.43;;;11.13;;
9689;SDS011;4884;42.614;23.340;2023-06-14T04:07:27;12.30;;;9.63;;
9689;SDS011;4884;42.614;23.340;2023-06-14T04:09:53;9.97;;;8.97;;
9689;SDS011;4884;42.614;23.340;2023-06-14T04:12:19;11.67;;;10.57;;
9689;SDS011;4884;42.614;23.340;2023-06-14T04:14:45;14.47;;;10.00;;
9689;SDS011;4884;42.614;23.340;2023-06-14T04:17:10;14.93;;;13.10;;
9689;SDS011;4884;42.614;23.340;2023-06-14T04:19:36;15.50;;;13.93;;
9689;SDS011;4884;42.614;23.340;2023-06-14T04:22:01;15.30;;;13.70;;
9689;SDS011;4884;42.614;23.340;2023-06-14T04:24:27;15.80;;;14.27;;
9689;SDS011;4884;42.614;23.340;2023-06-14T04:26:57;17.83;;;16.03;;
9689;SDS011;4884;42.614;23.340;2023-06-14T04:29:24;15.97;;;13.27;;
9689;SDS011;4884;42.614;23.340;2023-06-14T04:31:51;15.10;;;13.47;;
9689;SDS011;4884;42.614;23.340;2023-06-14T04:34:18;16.43;;;13.80;;
9689;SDS011;4884;42.614;23.340;2023-06-14T04:36:44;16.07;;;12.70;;
9689;SDS011;4884;42.614;23.340;2023-06-14T04:39:20;18.87;;;13.50;;
9689;SDS011;4884;42.614;23.340;2023-06-14T04:41:46;15.07;;;13.47;;
9689;SDS011;4884;42.614;23.340;2023-06-14T04:44:12;15.47;;;13.67;;
9689;SDS011;4884;42.614;23.340;2023-06-14T04:46:38;18.13;;;13.83;;
9689;SDS011;4884;42.614;23.340;2023-06-14T04:49:14;16.17;;;14.47;;
9689;SDS011;4884;42.614;23.340;2023-06-14T04:51:40;15.03;;;13.43;;
9689;SDS011;4884;42.614;23.340;2023-06-14T04:54:07;15.77;;;12.30;;
9689;SDS011;4884;42.614;23.340;2023-06-14T04:56:35;17.70;;;14.23;;
9689;SDS011;4884;42.614;23.340;2023-06-14T04:59:02;16.90;;;12.67;;
9689;SDS011;4884;42.614;23.340;2023-06-14T05:01:29;18.07;;;13.30;;
9689;SDS011;4884;42.614;23.340;2023-06-14T05:03:56;18.33;;;14.03;;
9689;SDS011;4884;42.614;23.340;2023-06-14T05:06:22;18.67;;;15.20;;
9689;SDS011;4884;42.614;23.340;2023-06-14T05:08:47;25.30;;;15.53;;
9689;SDS011;4884;42.614;23.340;2023-06-14T05:11:13;21.33;;;15.20;;
9689;SDS011;4884;42.614;23.340;2023-06-14T05:13:38;15.10;;;13.53;;
9689;SDS011;4884;42.614;23.340;2023-06-14T05:16:06;19.00;;;14.47;;
9689;SDS011;4884;42.614;23.340;2023-06-14T05:18:31;19.40;;;14.77;;
9689;SDS011;4884;42.614;23.340;2023-06-14T05:20:59;16.73;;;15.03;;
9689;SDS011;4884;42.614;23.340;2023-06-14T05:23:24;18.00;;;15.00;;
9689;SDS011;4884;42.614;23.340;2023-06-14T05:25:50;17.17;;;13.80;;
9689;SDS011;4884;42.614;23.340;2023-06-14T05:28:15;16.20;;;14.07;;
9689;SDS011;4884;42.614;23.340;2023-06-14T05:30:41;17.40;;;15.07;;
9689;SDS011;4884;42.614;23.340;2023-06-14T05:33:06;17.93;;;15.73;;
9689;SDS011;4884;42.614;23.340;2023-06-14T05:35:32;19.83;;;14.73;;
9689;SDS011;4884;42.614;23.340;2023-06-14T05:37:57;17.47;;;14.57;;
9689;SDS011;4884;42.614;23.340;2023-06-14T05:40:23;15.77;;;14.23;;
9689;SDS011;4884;42.614;23.340;2023-06-14T05:42:48;17.03;;;14.20;;
9689;SDS011;4884;42.614;23.340;2023-06-14T05:45:13;15.40;;;13.73;;
9689;SDS011;4884;42.614;23.340;2023-06-14T05:47:40;18.47;;;15.23;;
9689;SDS011;4884;42.614;23.340;2023-06-14T05:50:06;17.83;;;14.63;;
9689;SDS011;4884;42.614;23.340;2023-06-14T05:52:32;17.93;;;16.03;;
9689;SDS011;4884;42.614;23.340;2023-06-14T05:54:57;17.43;;;15.50;;
9689;SDS011;4884;42.614;23.340;2023-06-14T05:57:22;19.80;;;16.73;;
9689;SDS011;4884;42.614;23.340;2023-06-14T05:59:48;21.07;;;17.50;;
9689;SDS011;4884;42.614;23.340;2023-06-14T06:02:13;16.50;;;14.70;;
9689;SDS011;4884;42.614;23.340;2023-06-14T06:04:39;17.30;;;15.57;;
9689;SDS011;4884;42.614;23.340;2023-06-14T06:07:04;19.00;;;16.03;;
9689;SDS011;4884;42.614;23.340;2023-06-14T06:09:30;19.97;;;17.40;;
9689;SDS011;4884;42.614;23.340;2023-06-14T06:11:55;23.40;;;17.43;;
9689;SDS011;4884;42.614;23.340;2023-06-14T06:14:21;22.07;;;16.90;;
9689;SDS011;4884;42.614;23.340;2023-06-14T06:16:46;20.00;;;17.67;;
9689;SDS011;4884;42.614;23.340;2023-06-14T06:19:12;18.47;;;16.47;;
9689;SDS011;4884;42.614;23.340;2023-06-14T06:21:37;18.97;;;16.97;;
9689;SDS011;4884;42.614;23.340;2023-06-14T06:24:04;27.83;;;18.67;;
9689;SDS011;4884;42.614;23.340;2023-06-14T06:26:30;22.10;;;18.80;;
9689;SDS011;4884;42.614;23.340;2023-06-14T06:28:56;20.23;;;18.03;;
9689;SDS011;4884;42.614;23.340;2023-06-14T06:31:22;24.70;;;18.90;;
9689;SDS011;4884;42.614;23.340;2023-06-14T06:33:48;21.47;;;18.53;;
9689;SDS011;4884;42.614;23.340;2023-06-14T06:36:13;27.40;;;19.33;;
9689;SDS011;4884;42.614;23.340;2023-06-14T06:38:38;22.70;;;17.77;;
9689;SDS011;4884;42.614;23.340;2023-06-14T06:41:04;21.23;;;18.70;;
9689;SDS011;4884;42.614;23.340;2023-06-14T06:43:29;20.83;;;17.37;;
9689;SDS011;4884;42.614;23.340;2023-06-14T06:45:55;21.50;;;17.50;;
9689;SDS011;4884;42.614;23.340;2023-06-14T06:48:20;21.40;;;17.30;;
9689;SDS011;4884;42.614;23.340;2023-06-14T06:50:45;20.60;;;14.90;;
9689;SDS011;4884;42.614;23.340;2023-06-14T06:53:11;21.03;;;17.37;;
9689;SDS011;4884;42.614;23.340;2023-06-14T06:55:36;17.13;;;15.27;;
9689;SDS011;4884;42.614;23.340;2023-06-14T06:58:01;18.87;;;16.20;;
9689;SDS011;4884;42.614;23.340;2023-06-14T07:00:29;17.43;;;15.63;;
9689;SDS011;4884;42.614;23.340;2023-06-14T07:02:55;17.63;;;15.67;;
9689;SDS011;4884;42.614;23.340;2023-06-14T07:05:20;17.77;;;14.53;;
9689;SDS011;4884;42.614;23.340;2023-06-14T07:07:45;20.83;;;15.53;;
9689;SDS011;4884;42.614;23.340;2023-06-14T07:10:11;19.17;;;15.27;;
9689;SDS011;4884;42.614;23.340;2023-06-14T07:12:36;15.80;;;14.10;;
9689;SDS011;4884;42.614;23.340;2023-06-14T07:15:04;16.07;;;13.97;;
9689;SDS011;4884;42.614;23.340;2023-06-14T07:17:33;16.83;;;14.93;;
9689;SDS011;4884;42.614;23.340;2023-06-14T07:19:59;16.10;;;14.40;;
9689;SDS011;4884;42.614;23.340;2023-06-14T07:22:25;17.70;;;14.63;;
9689;SDS011;4884;42.614;23.340;2023-06-14T07:24:51;17.53;;;15.73;;
9689;SDS011;4884;42.614;23.340;2023-06-14T07:27:16;18.57;;;13.53;;
9689;SDS011;4884;42.614;23.340;2023-06-14T07:29:42;17.20;;;14.63;;
9689;SDS011;4884;42.614;23.340;2023-06-14T07:32:07;18.03;;;14.00;;
9689;SDS011;4884;42.614;23.340;2023-06-14T07:34:32;15.27;;;13.67;;
9689;SDS011;4884;42.614;23.340;2023-06-14T07:36:58;14.57;;;13.20;;
9689;SDS011;4884;42.614;23.340;2023-06-14T07:39:23;13.17;;;11.83;;
9689;SDS011;4884;42.614;23.340;2023-06-14T07:41:49;14.57;;;13.13;;
9689;SDS011;4884;42.614;23.340;2023-06-14T07:44:14;14.40;;;13.00;;
9689;SDS011;4884;42.614;23.340;2023-06-14T07:46:40;14.13;;;12.53;;
9689;SDS011;4884;42.614;23.340;2023-06-14T07:49:06;13.97;;;12.50;;
9689;SDS011;4884;42.614;23.340;2023-06-14T07:51:32;15.77;;;14.07;;
9689;SDS011;4884;42.614;23.340;2023-06-14T07:53:59;15.53;;;13.93;;
9689;SDS011;4884;42.614;23.340;2023-06-14T07:56:25;19.83;;;15.77;;
9689;SDS011;4884;42.614;23.340;2023-06-14T07:58:51;17.73;;;14.70;;
9689;SDS011;4884;42.614;23.340;2023-06-14T08:01:16;14.77;;;13.37;;
9689;SDS011;4884;42.614;23.340;2023-06-14T08:03:42;15.50;;;13.53;;
9689;SDS011;4884;42.614;23.340;2023-06-14T08:06:08;15.10;;;13.53;;
9689;SDS011;4884;42.614;23.340;2023-06-14T08:08:33;14.15;;;12.75;;
9689;SDS011;4884;42.614;23.340;2023-06-14T08:10:58;13.00;;;11.75;;
9689;SDS011;4884;42.614;23.340;2023-06-14T08:13:24;13.63;;;12.20;;
9689;SDS011;4884;42.614;23.340;2023-06-14T08:15:49;13.43;;;12.05;;
9689;SDS011;4884;42.614;23.340;2023-06-14T08:18:15;12.32;;;11.23;;
9689;SDS011;4884;42.614;23.340;2023-06-14T08:20:40;14.10;;;12.60;;
9689;SDS011;4884;42.614;23.340;2023-06-14T08:23:06;12.65;;;11.45;;
9689;SDS011;4884;42.614;23.340;2023-06-14T08:25:31;12.73;;;11.40;;
9689;SDS011;4884;42.614;23.340;2023-06-14T08:27:58;11.80;;;10.82;;
9689;SDS011;4884;42.614;23.340;2023-06-14T08:30:23;11.90;;;10.60;;
9689;SDS011;4884;42.614;23.340;2023-06-14T08:32:49;11.68;;;10.57;;
9689;SDS011;4884;42.614;23.340;2023-06-14T08:35:15;12.95;;;11.65;;
9689;SDS011;4884;42.614;23.340;2023-06-14T08:37:41;20.15;;;14.52;;
9689;SDS011;4884;42.614;23.340;2023-06-14T08:40:12;14.60;;;13.15;;
9689;SDS011;4884;42.614;23.340;2023-06-14T08:42:46;16.48;;;14.98;;
9689;SDS011;4884;42.614;23.340;2023-06-14T08:45:13;15.50;;;13.93;;
9689;SDS011;4884;42.614;23.340;2023-06-14T08:47:39;18.65;;;14.68;;
9689;SDS011;4884;42.614;23.340;2023-06-14T08:50:05;19.55;;;16.08;;
9689;SDS011;4884;42.614;23.340;2023-06-14T08:52:32;16.45;;;14.82;;
9689;SDS011;4884;42.614;23.340;2023-06-14T08:54:59;17.43;;;15.53;;
9689;SDS011;4884;42.614;23.340;2023-06-14T08:57:25;17.43;;;15.60;;
9689;SDS011;4884;42.614;23.340;2023-06-14T08:59:55;19.27;;;16.87;;
9689;SDS011;4884;42.614;23.340;2023-06-14T09:02:22;18.77;;;16.80;;
9689;SDS011;4884;42.614;23.340;2023-06-14T09:04:47;21.63;;;19.03;;
9689;SDS011;4884;42.614;23.340;2023-06-14T09:07:14;20.00;;;16.37;;
9689;SDS011;4884;42.614;23.340;2023-06-14T09:09:40;17.90;;;16.00;;
9689;SDS011;4884;42.614;23.340;2023-06-14T09:12:10;18.10;;;16.40;;
9689;SDS011;4884;42.614;23.340;2023-06-14T09:14:36;18.80;;;16.60;;
9689;SDS011;4884;42.614;23.340;2023-06-14T09:17:04;18.90;;;15.73;;
9689;SDS011;4884;42.614;23.340;2023-06-14T09:19:30;18.80;;;15.90;;
9689;SDS011;4884;42.614;23.340;2023-06-14T09:21:56;18.80;;;16.00;;
9689;SDS011;4884;42.614;23.340;2023-06-14T09:24:23;18.47;;;15.00;;
9689;SDS011;4884;42.614;23.340;2023-06-14T09:26:50;17.40;;;15.60;;
9689;SDS011;4884;42.614;23.340;2023-06-14T09:29:16;21.13;;;17.47;;
9689;SDS011;4884;42.614;23.340;2023-06-14T09:31:42;17.63;;;15.93;;
9689;SDS011;4884;42.614;23.340;2023-06-14T09:34:08;16.73;;;14.93;;
9689;SDS011;4884;42.614;23.340;2023-06-14T09:36:34;17.47;;;15.77;;
9689;SDS011;4884;42.614;23.340;2023-06-14T09:39:01;15.68;;;14.20;;
9689;SDS011;4884;42.614;23.340;2023-06-14T09:41:35;15.20;;;13.85;;
9689;SDS011;4884;42.614;23.340;2023-06-14T09:44:02;17.60;;;15.30;;
9689;SDS011;4884;42.614;23.340;2023-06-14T09:46:29;16.67;;;15.10;;
9689;SDS011;4884;42.614;23.340;2023-06-14T09:48:58;17.00;;;15.38;;
9689;SDS011;4884;42.614;23.340;2023-06-14T09:51:24;17.40;;;15.13;;
9689;SDS011;4884;42.614;23.340;2023-06-14T09:53:51;17.13;;;15.05;;
9689;SDS011;4884;42.614;23.340;2023-06-14T09:56:25;17.83;;;14.48;;
9689;SDS011;4884;42.614;23.340;2023-06-14T09:58:54;16.73;;;15.23;;
9689;SDS011;4884;42.614;23.340;2023-06-14T10:01:26;18.80;;;14.48;;
9689;SDS011;4884;42.614;23.340;2023-06-14T10:04:05;17.75;;;16.10;;
9689;SDS011;4884;42.614;23.340;2023-06-14T10:06:31;15.10;;;13.80;;
9689;SDS011;4884;42.614;23.340;2023-06-14T10:08:58;15.75;;;14.32;;
9689;SDS011;4884;42.614;23.340;2023-06-14T10:11:28;14.80;;;13.27;;
9689;SDS011;4884;42.614;23.340;2023-06-14T10:13:57;14.77;;;13.30;;
9689;SDS011;4884;42.614;23.340;2023-06-14T10:22:19;15.45;;;13.82;;
9689;SDS011;4884;42.614;23.340;2023-06-14T10:24:50;15.05;;;13.75;;
9689;SDS011;4884;42.614;23.340;2023-06-14T10:27:15;15.13;;;13.82;;
9689;SDS011;4884;42.614;23.340;2023-06-14T10:32:23;16.08;;;14.52;;
9689;SDS011;4884;42.614;23.340;2023-06-14T10:34:56;15.43;;;13.98;;
9689;SDS011;4884;42.614;23.340;2023-06-14T10:37:25;14.98;;;13.77;;
9689;SDS011;4884;42.614;23.340;2023-06-14T10:39:51;14.43;;;13.15;;
9689;SDS011;4884;42.614;23.340;2023-06-14T10:42:18;16.15;;;14.55;;
9689;SDS011;4884;42.614;23.340;2023-06-14T10:47:24;14.73;;;13.40;;
9689;SDS011;4884;42.614;23.340;2023-06-14T10:52:40;15.18;;;13.77;;
9689;SDS011;4884;42.614;23.340;2023-06-14T10:55:07;16.55;;;14.85;;
9689;SDS011;4884;42.614;23.340;2023-06-14T10:57:48;14.60;;;13.10;;
9689;SDS011;4884;42.614;23.340;2023-06-14T11:00:27;14.98;;;13.68;;
9689;SDS011;4884;42.614;23.340;2023-06-14T11:11:09;12.82;;;11.65;;
9689;SDS011;4884;42.614;23.340;2023-06-14T11:13:38;13.55;;;12.43;;
9689;SDS011;4884;42.614;23.340;2023-06-14T11:16:09;13.48;;;12.07;;
9689;SDS011;4884;42.614;23.340;2023-06-14T11:18:44;12.95;;;11.75;;
9689;SDS011;4884;42.614;23.340;2023-06-14T11:21:10;13.95;;;12.68;;
9689;SDS011;4884;42.614;23.340;2023-06-14T11:23:36;13.52;;;12.43;;
9689;SDS011;4884;42.614;23.340;2023-06-14T11:26:01;12.55;;;11.52;;
9689;SDS011;4884;42.614;23.340;2023-06-14T11:28:39;12.43;;;11.23;;
9689;SDS011;4884;42.614;23.340;2023-06-14T11:31:05;12.35;;;11.25;;
9689;SDS011;4884;42.614;23.340;2023-06-14T11:33:31;11.23;;;10.30;;
9689;SDS011;4884;42.614;23.340;2023-06-14T11:35:57;11.57;;;10.57;;
9689;SDS011;4884;42.614;23.340;2023-06-14T11:38:23;12.73;;;11.48;;
9689;SDS011;4884;42.614;23.340;2023-06-14T11:40:48;11.40;;;10.30;;
9689;SDS011;4884;42.614;23.340;2023-06-14T11:43:13;11.85;;;10.00;;
9689;SDS011;4884;42.614;23.340;2023-06-14T11:45:39;11.45;;;10.35;;
9689;SDS011;4884;42.614;23.340;2023-06-14T11:48:04;11.85;;;10.75;;
9689;SDS011;4884;42.614;23.340;2023-06-14T11:50:31;12.73;;;11.50;;
9689;SDS011;4884;42.614;23.340;2023-06-14T11:52:59;11.88;;;10.88;;
9689;SDS011;4884;42.614;23.340;2023-06-14T11:55:28;10.00;;;9.20;;
9689;SDS011;4884;42.614;23.340;2023-06-14T11:57:54;9.40;;;8.65;;
9689;SDS011;4884;42.614;23.340;2023-06-14T12:00:22;10.05;;;9.13;;
9689;SDS011;4884;42.614;23.340;2023-06-14T12:02:53;9.98;;;8.95;;
9689;SDS011;4884;42.614;23.340;2023-06-14T12:05:20;9.73;;;8.82;;
9689;SDS011;4884;42.614;23.340;2023-06-14T12:07:46;8.07;;;7.43;;
9689;SDS011;4884;42.614;23.340;2023-06-14T12:10:12;8.90;;;8.13;;
9689;SDS011;4884;42.614;23.340;2023-06-14T12:12:39;9.00;;;8.30;;
9689;SDS011;4884;42.614;23.340;2023-06-14T12:15:08;9.05;;;8.25;;
9689;SDS011;4884;42.614;23.340;2023-06-14T12:17:36;9.25;;;8.27;;
9689;SDS011;4884;42.614;23.340;2023-06-14T12:20:07;10.80;;;9.27;;
9689;SDS011;4884;42.614;23.340;2023-06-14T12:22:38;9.63;;;8.82;;
9689;SDS011;4884;42.614;23.340;2023-06-14T12:25:26;9.93;;;9.13;;
9689;SDS011;4884;42.614;23.340;2023-06-14T12:27:53;9.38;;;8.68;;
9689;SDS011;4884;42.614;23.340;2023-06-14T12:30:19;9.32;;;8.50;;
9689;SDS011;4884;42.614;23.340;2023-06-14T12:32:45;9.15;;;8.35;;
9689;SDS011;4884;42.614;23.340;2023-06-14T12:35:10;9.40;;;8.60;;
9689;SDS011;4884;42.614;23.340;2023-06-14T12:37:36;9.73;;;8.90;;
9689;SDS011;4884;42.614;23.340;2023-06-14T12:40:01;8.98;;;8.20;;
9689;SDS011;4884;42.614;23.340;2023-06-14T12:42:30;9.13;;;8.32;;
9689;SDS011;4884;42.614;23.340;2023-06-14T12:44:56;9.00;;;8.27;;
9689;SDS011;4884;42.614;23.340;2023-06-14T12:47:21;9.73;;;8.73;;
9689;SDS011;4884;42.614;23.340;2023-06-14T12:49:47;9.15;;;8.40;;
9689;SDS011;4884;42.614;23.340;2023-06-14T12:52:12;9.07;;;8.15;;
9689;SDS011;4884;42.614;23.340;2023-06-14T12:54:38;9.45;;;8.52;;
9689;SDS011;4884;42.614;23.340;2023-06-14T12:57:04;9.13;;;8.38;;
9689;SDS011;4884;42.614;23.340;2023-06-14T12:59:30;10.60;;;9.27;;
9689;SDS011;4884;42.614;23.340;2023-06-14T13:01:59;8.93;;;8.13;;
9689;SDS011;4884;42.614;23.340;2023-06-14T13:04:25;9.07;;;8.27;;
9689;SDS011;4884;42.614;23.340;2023-06-14T13:06:50;10.43;;;8.87;;
9689;SDS011;4884;42.614;23.340;2023-06-14T13:09:16;9.27;;;8.47;;
9689;SDS011;4884;42.614;23.340;2023-06-14T13:11:41;10.87;;;9.53;;
9689;SDS011;4884;42.614;23.340;2023-06-14T13:14:10;15.90;;;10.60;;
9689;SDS011;4884;42.614;23.340;2023-06-14T13:16:36;15.23;;;12.60;;
9689;SDS011;4884;42.614;23.340;2023-06-14T13:19:01;13.97;;;9.73;;
9689;SDS011;4884;42.614;23.340;2023-06-14T13:21:27;13.83;;;10.40;;
9689;SDS011;4884;42.614;23.340;2023-06-14T13:23:52;12.53;;;11.23;;
9689;SDS011;4884;42.614;23.340;2023-06-14T13:26:18;20.30;;;13.17;;
9689;SDS011;4884;42.614;23.340;2023-06-14T13:28:44;14.03;;;12.00;;
9689;SDS011;4884;42.614;23.340;2023-06-14T13:31:09;12.17;;;10.63;;
9689;SDS011;4884;42.614;23.340;2023-06-14T13:33:35;15.23;;;13.33;;
9689;SDS011;4884;42.614;23.340;2023-06-14T13:36:00;18.87;;;14.93;;
9689;SDS011;4884;42.614;23.340;2023-06-14T13:38:25;19.73;;;15.97;;
9689;SDS011;4884;42.614;23.340;2023-06-14T13:40:51;16.67;;;14.77;;
9689;SDS011;4884;42.614;23.340;2023-06-14T13:43:16;19.87;;;15.60;;
9689;SDS011;4884;42.614;23.340;2023-06-14T13:45:41;18.37;;;16.37;;
9689;SDS011;4884;42.614;23.340;2023-06-14T13:48:07;15.97;;;14.20;;
9689;SDS011;4884;42.614;23.340;2023-06-14T13:50:32;14.40;;;12.87;;
9689;SDS011;4884;42.614;23.340;2023-06-14T13:52:58;15.93;;;14.03;;
9689;SDS011;4884;42.614;23.340;2023-06-14T13:55:24;12.90;;;11.60;;
9689;SDS011;4884;42.614;23.340;2023-06-14T13:57:49;12.53;;;11.37;;
9689;SDS011;4884;42.614;23.340;2023-06-14T14:00:15;13.50;;;11.03;;
9689;SDS011;4884;42.614;23.340;2023-06-14T14:02:41;13.47;;;11.23;;
9689;SDS011;4884;42.614;23.340;2023-06-14T14:05:06;12.73;;;10.87;;
9689;SDS011;4884;42.614;23.340;2023-06-14T14:07:33;9.67;;;8.77;;
9689;SDS011;4884;42.614;23.340;2023-06-14T14:09:59;9.40;;;8.50;;
9689;SDS011;4884;42.614;23.340;2023-06-14T14:12:25;8.67;;;7.83;;
9689;SDS011;4884;42.614;23.340;2023-06-14T14:14:50;8.80;;;7.93;;
9689;SDS011;4884;42.614;23.340;2023-06-14T14:17:16;9.93;;;9.03;;
9689;SDS011;4884;42.614;23.340;2023-06-14T14:19:41;9.20;;;8.33;;
9689;SDS011;4884;42.614;23.340;2023-06-14T14:22:07;9.03;;;8.17;;
9689;SDS011;4884;42.614;23.340;2023-06-14T14:24:32;9.90;;;9.00;;
9689;SDS011;4884;42.614;23.340;2023-06-14T14:26:57;12.93;;;8.63;;
9689;SDS011;4884;42.614;23.340;2023-06-14T14:29:25;10.50;;;9.40;;
9689;SDS011;4884;42.614;23.340;2023-06-14T14:31:53;9.73;;;8.60;;
9689;SDS011;4884;42.614;23.340;2023-06-14T14:34:19;10.93;;;9.87;;
9689;SDS011;4884;42.614;23.340;2023-06-14T14:36:44;11.50;;;10.37;;
9689;SDS011;4884;42.614;23.340;2023-06-14T14:39:10;11.70;;;10.43;;
9689;SDS011;4884;42.614;23.340;2023-06-14T14:41:35;10.30;;;9.30;;
9689;SDS011;4884;42.614;23.340;2023-06-14T14:44:02;12.13;;;10.93;;
9689;SDS011;4884;42.614;23.340;2023-06-14T14:46:28;12.60;;;11.40;;
9689;SDS011;4884;42.614;23.340;2023-06-14T14:48:53;13.57;;;12.10;;
9689;SDS011;4884;42.614;23.340;2023-06-14T14:51:19;15.20;;;13.50;;
9689;SDS011;4884;42.614;23.340;2023-06-14T14:53:44;14.77;;;13.27;;
9689;SDS011;4884;42.614;23.340;2023-06-14T14:56:10;16.60;;;14.90;;
9689;SDS011;4884;42.614;23.340;2023-06-14T14:58:37;15.73;;;14.03;;
9689;SDS011;4884;42.614;23.340;2023-06-14T15:01:02;15.83;;;14.23;;